Lawton, Kansas
Current Conditions -  °F | °C
As of 5:15 AM on Saturday 22 Nov 2014 (Local Time) from KPTS Reporting Station
Overcast Overcast  
Wind Chill: 56°   Ceiling: 1700
Heat Index: 56°   Visibility: 10mi
Dew Point: 52°   Wind: 13mph
Humidity: 88%   Direction: 200°SSW
Pressure: 30.03"   Gusts: NA
Location:  37.2773°N, 94.7051°W
Report Text: KPTS 221115Z AUTO 20011KT 10SM OVC017 13/11 A3003 RMK AO2 T01330113
Loading
Personal Weather Stations






























Interactive Weather Map New forecast layout! Learn more

10-Day Weather Forecast

Advertisements
Track Severe Weather on mobile